Time;durP1;ratioP1;P1;durP2;ratioP2;P2;SDS_P1;SDS_P2;PMS_P1;PMS_P2;Temp;Humidity;BMP_temperature;BMP_pressure;BME280_temperature;BME280_humidity;BME280_pressure;Samples;Min_cycle;Max_cycle;Signal;HPM_P1;HPM_P2
2023/02/27 00:00:20;;;;;;;2.00;1.77;;;;;;;0.50;100.00;101573.34;7390392;19;20015;-56
2023/02/27 00:02:50;;;;;;;2.47;2.15;;;;;;;0.14;100.00;101581.28;7396307;19;20011;-56
2023/02/27 00:05:17;;;;;;;1.70;1.08;;;;;;;0.03;100.00;101583.81;7393730;19;20022;-56
2023/02/27 00:07:43;;;;;;;0.85;0.85;;;;;;;0.00;100.00;101581.81;7394151;19;20093;-56
2023/02/27 00:10:11;;;;;;;0.73;0.65;;;;;;;-0.04;100.00;101581.75;7394147;19;20070;-56
2023/02/27 00:12:37;;;;;;;1.42;1.33;;;;;;;-0.02;100.00;101586.84;7395524;19;20354;-56
2023/02/27 00:15:15;;;;;;;2.17;1.75;;;;;;;0.12;100.00;101587.13;7393346;19;20035;-56
2023/02/27 00:17:42;;;;;;;1.08;1.02;;;;;;;0.09;100.00;101593.31;7393803;19;20006;-56
2023/02/27 00:20:11;;;;;;;9.43;1.45;;;;;;;0.12;100.00;101598.09;7392997;19;20022;-56
2023/02/27 00:22:39;;;;;;;2.65;2.28;;;;;;;0.24;100.00;101592.44;7396982;19;20494;-56
2023/02/27 00:25:06;;;;;;;1.73;1.30;;;;;;;0.38;100.00;101581.75;7392256;19;20363;-56
2023/02/27 00:27:33;;;;;;;2.72;0.90;;;;;;;0.52;100.00;101583.97;7392534;19;20038;-57
2023/02/27 00:30:04;;;;;;;1.15;0.60;;;;;;;0.56;100.00;101584.81;7390913;19;20020;-56
2023/02/27 00:32:30;;;;;;;0.60;0.60;;;;;;;0.43;100.00;101586.16;7395328;19;20010;-56
2023/02/27 00:34:56;;;;;;;1.88;1.77;;;;;;;0.44;100.00;101574.81;7393282;19;20011;-56
2023/02/27 00:37:22;;;;;;;1.02;0.93;;;;;;;0.56;100.00;101584.81;7390140;19;20029;-56
2023/02/27 00:39:49;;;;;;;2.55;0.95;;;;;;;0.65;100.00;101591.59;7393333;19;20010;-56
2023/02/27 00:42:15;;;;;;;2.13;1.60;;;;;;;0.67;100.00;101588.53;7394791;19;20010;-56
2023/02/27 00:44:41;;;;;;;1.38;1.15;;;;;;;0.74;100.00;101583.13;7391978;19;20018;-56
2023/02/27 00:47:07;;;;;;;0.55;0.32;;;;;;;0.83;100.00;101583.69;7391575;19;20015;-56
2023/02/27 00:49:33;;;;;;;2.22;1.60;;;;;;;0.82;100.00;101582.13;7394305;19;20074;-56
2023/02/27 00:52:00;;;;;;;0.40;0.40;;;;;;;0.89;100.00;101578.69;7394297;19;20018;-56
2023/02/27 00:54:26;;;;;;;2.28;1.50;;;;;;;0.99;100.00;101584.34;7391810;19;20006;-56
2023/02/27 00:56:53;;;;;;;0.30;0.30;;;;;;;0.86;100.00;101582.16;7391385;19;20466;-56
2023/02/27 00:59:19;;;;;;;1.85;0.95;;;;;;;0.89;100.00;101593.19;7394969;19;20014;-56
2023/02/27 01:01:45;;;;;;;0.80;0.80;;;;;;;0.91;100.00;101582.63;7394384;19;20006;-56
2023/02/27 01:04:12;;;;;;;2.30;1.48;;;;;;;1.53;100.00;101584.75;7394396;19;20014;-56
2023/02/27 01:06:38;;;;;;;4.07;1.35;;;;;;;1.35;100.00;101583.69;7394176;19;20347;-56
2023/02/27 01:09:05;;;;;;;2.15;1.20;;;;;;;1.87;100.00;101580.06;7394279;19;20015;-57
2023/02/27 01:11:32;;;;;;;3.33;1.33;;;;;;;1.04;100.00;101581.25;7394697;19;20010;-57
2023/02/27 01:13:59;;;;;;;2.78;0.88;;;;;;;1.13;100.00;101589.22;7392768;19;20007;-57
2023/02/27 01:16:26;;;;;;;0.80;0.80;;;;;;;0.96;100.00;101598.78;7394117;19;20015;-57
2023/02/27 01:18:52;;;;;;;0.47;0.47;;;;;;;1.14;100.00;101599.84;7395462;19;20007;-57
2023/02/27 01:21:18;;;;;;;0.40;0.40;;;;;;;1.19;100.00;101594.03;7392871;19;20463;-57
2023/02/27 01:23:44;;;;;;;0.82;0.82;;;;;;;1.08;100.00;101603.28;7394315;19;20007;-57
2023/02/27 01:26:11;;;;;;;5.22;0.70;;;;;;;1.12;100.00;101602.19;7393209;19;20467;-57
2023/02/27 01:28:37;;;;;;;0.50;0.40;;;;;;;1.44;100.00;101597.16;7394234;19;20506;-57
2023/02/27 01:31:04;;;;;;;0.40;0.40;;;;;;;1.57;100.00;101597.72;7392840;19;20098;-57
2023/02/27 01:33:31;;;;;;;1.10;1.05;;;;;;;1.39;100.00;101598.25;7396569;19;20007;-57
2023/02/27 01:36:00;;;;;;;1.75;1.08;;;;;;;1.38;100.00;101591.19;7390686;19;20015;-57
2023/02/27 01:38:26;;;;;;;0.38;0.38;;;;;;;1.46;100.00;101592.88;7389862;19;20078;-57
2023/02/27 01:40:52;;;;;;;1.30;1.20;;;;;;;1.51;100.00;101589.81;7394646;19;20010;-57
2023/02/27 01:43:20;;;;;;;0.60;0.60;;;;;;;1.81;100.00;101586.25;7392458;19;20031;-57
2023/02/27 01:45:47;;;;;;;1.90;1.00;;;;;;;1.96;100.00;101593.50;7390596;19;20014;-58
2023/02/27 01:48:28;;;;;;;1.15;1.05;;;;;;;1.71;100.00;101589.66;7390788;19;20035;-58
2023/02/27 01:51:06;;;;;;;6.97;1.23;;;;;;;1.85;100.00;101590.63;7390276;19;20021;-57
2023/02/27 01:53:35;;;;;;;0.98;0.88;;;;;;;1.82;100.00;101582.34;7395821;19;20010;-57
2023/02/27 01:56:09;;;;;;;0.47;0.43;;;;;;;1.91;100.00;101580.09;7391230;19;20011;-57
2023/02/27 01:58:36;;;;;;;0.75;0.75;;;;;;;2.10;100.00;101582.69;7389757;19;20015;-57
2023/02/27 02:01:02;;;;;;;3.67;1.17;;;;;;;2.11;100.00;101578.75;7389895;19;20042;-57
2023/02/27 02:03:55;;;;;;;4.50;0.47;;;;;;;3.47;100.00;101570.03;7392081;19;20022;-57
2023/02/27 02:06:22;;;;;;;3.50;1.10;;;;;;;2.06;100.00;101573.59;7389256;19;20025;-57
2023/02/27 02:08:50;;;;;;;0.88;0.55;;;;;;;1.93;100.00;101572.25;7390709;19;20058;-57
2023/02/27 02:11:19;;;;;;;0.63;0.63;;;;;;;1.87;100.00;101569.06;7388991;19;20030;-58
2023/02/27 02:13:52;;;;;;;1.30;1.20;;;;;;;1.81;100.00;101575.28;7388515;19;20033;-57
2023/02/27 02:16:27;;;;;;;1.25;0.80;;;;;;;1.84;100.00;101577.28;7389511;19;20019;-58
2023/02/27 02:19:16;;;;;;;0.60;0.60;;;;;;;1.76;100.00;101579.13;7391629;19;20011;-58
2023/02/27 02:22:26;;;;;;;1.17;0.68;;;;;;;1.86;100.00;101585.94;7390154;19;20007;-57
2023/02/27 02:25:40;;;;;;;0.70;0.70;;;;;;;1.76;100.00;101578.34;7390353;19;20014;-57
2023/02/27 02:28:13;;;;;;;0.77;0.65;;;;;;;1.84;100.00;101585.53;7386817;19;20010;-57
2023/02/27 02:31:11;;;;;;;0.40;0.40;;;;;;;1.79;100.00;101588.59;7386815;19;20479;-57
2023/02/27 02:33:40;;;;;;;1.70;0.52;;;;;;;1.77;100.00;101588.97;7390483;19;20015;-58
2023/02/27 02:36:09;;;;;;;0.40;0.40;;;;;;;1.87;100.00;101587.50;7389556;19;20368;-58
2023/02/27 02:38:38;;;;;;;2.03;0.95;;;;;;;1.82;100.00;101588.63;7388005;19;20030;-57
2023/02/27 02:41:10;;;;;;;2.45;0.75;;;;;;;1.84;100.00;101594.53;7389831;19;20403;-57
2023/02/27 02:43:59;;;;;;;0.52;0.43;;;;;;;1.86;100.00;101594.19;7394465;19;20007;-59
2023/02/27 02:47:10;;;;;;;1.27;0.98;;;;;;;1.86;100.00;101597.72;7389252;19;20360;-59
2023/02/27 02:49:55;;;;;;;0.32;0.32;;;;;;;1.76;100.00;101594.81;7387739;19;20010;-58
2023/02/27 02:52:36;;;;;;;0.73;0.68;;;;;;;1.87;100.00;101584.75;7388741;19;20018;-58
2023/02/27 02:55:07;;;;;;;1.00;0.93;;;;;;;2.03;100.00;101582.59;7388819;19;20017;-58
2023/02/27 02:58:08;;;;;;;0.60;0.60;;;;;;;2.29;100.00;101580.53;7387706;19;20019;-58
2023/02/27 03:00:41;;;;;;;0.70;0.45;;;;;;;2.10;100.00;101577.19;7390992;19;20263;-58
2023/02/27 03:03:34;;;;;;;1.75;1.02;;;;;;;2.20;100.00;101571.00;7397495;19;20030;-58
2023/02/27 03:06:05;;;;;;;1.27;0.50;;;;;;;2.01;100.00;101565.69;7395525;19;20021;-58
2023/02/27 03:08:38;;;;;;;;;;;;;;;1.72;100.00;101572.81;7395993;19;20019;-57
2023/02/27 03:11:04;;;;;;;1.65;1.10;;;;;;;1.90;100.00;101581.28;7395892;19;19946;-57
2023/02/27 03:13:40;;;;;;;0.68;0.40;;;;;;;2.26;100.00;101577.75;7398304;19;20017;-57
2023/02/27 03:16:22;;;;;;;0.30;0.30;;;;;;;2.10;100.00;101583.44;7394597;19;20451;-58
2023/02/27 03:19:04;;;;;;;0.40;0.40;;;;;;;2.08;100.00;101582.28;7398431;19;20025;-57
2023/02/27 03:21:39;;;;;;;0.60;0.60;;;;;;;2.41;100.00;101576.72;7393247;19;20018;-57
2023/02/27 03:24:11;;;;;;;0.15;0.15;;;;;;;2.62;100.00;101582.41;7397021;19;20016;-57
2023/02/27 03:26:43;;;;;;;1.85;0.88;;;;;;;2.44;100.00;101575.16;7395906;19;20069;-58
2023/02/27 03:29:15;;;;;;;1.33;0.80;;;;;;;2.50;100.00;101568.94;7393039;19;20010;-58
2023/02/27 03:32:08;;;;;;;0.28;0.28;;;;;;;2.53;100.00;101568.19;7395306;19;20106;-58
2023/02/27 03:34:38;;;;;;;0.40;0.40;;;;;;;2.58;100.00;101575.31;7396346;19;20023;-57
2023/02/27 03:37:32;;;;;;;0.90;0.63;;;;;;;2.59;100.00;101571.38;7393660;19;20097;-57
2023/02/27 03:40:17;;;;;;;0.30;0.30;;;;;;;2.62;100.00;101571.41;7394135;19;20011;-57
2023/02/27 03:42:56;;;;;;;0.43;0.43;;;;;;;2.61;100.00;101569.84;7396592;19;20011;-57
2023/02/27 03:45:41;;;;;;;1.30;0.45;;;;;;;2.67;100.00;101568.31;7392801;19;20031;-57
2023/02/27 03:48:08;;;;;;;0.52;0.52;;;;;;;6.80;100.00;101553.38;7395669;19;20372;-58
2023/02/27 03:50:35;;;;;;;1.83;0.25;;;;;;;7.65;100.00;101547.75;7393294;19;20022;-57
2023/02/27 03:53:06;;;;;;;1.08;0.77;;;;;;;8.20;100.00;101541.09;7396620;19;20348;-58
2023/02/27 03:55:36;;;;;;;1.17;0.57;;;;;;;8.44;100.00;101556.63;7394388;19;20014;-57
2023/02/27 03:58:04;;;;;;;0.30;0.30;;;;;;;8.61;100.00;101557.56;7394507;19;20103;-57
2023/02/27 04:00:30;;;;;;;1.13;0.50;;;;;;;8.61;100.00;101558.34;7393092;19;20424;-59
2023/02/27 04:02:59;;;;;;;7.75;0.93;;;;;;;7.51;100.00;101559.00;7394008;19;20006;-58
2023/02/27 04:05:27;;;;;;;1.55;0.70;;;;;;;8.67;100.00;101561.44;7393592;19;20018;-58
2023/02/27 04:08:00;;;;;;;0.40;0.40;;;;;;;8.72;100.00;101566.53;7393582;19;20011;-57
2023/02/27 04:10:45;;;;;;;0.40;0.40;;;;;;;4.38;100.00;101558.53;7393404;19;20011;-57
2023/02/27 04:13:26;;;;;;;0.50;0.43;;;;;;;4.01;100.00;101560.81;7394742;19;20026;-57
2023/02/27 04:15:52;;;;;;;1.27;1.17;;;;;;;3.35;100.00;101553.06;7394482;19;20015;-57
2023/02/27 04:18:29;;;;;;;0.25;0.25;;;;;;;3.39;100.00;101553.88;7396619;19;20018;-57
2023/02/27 04:20:55;;;;;;;0.13;0.13;;;;;;;3.24;100.00;101554.97;7392126;19;20070;-57
2023/02/27 04:23:49;;;;;;;0.75;0.75;;;;;;;3.26;100.00;101547.09;7398676;19;20023;-57
2023/02/27 04:26:24;;;;;;;0.52;0.45;;;;;;;3.57;100.00;101555.53;7393351;19;20010;-57
2023/02/27 04:29:02;;;;;;;2.65;1.23;;;;;;;4.09;100.00;101562.44;7397570;19;20014;-57
2023/02/27 04:32:10;;;;;;;0.65;0.65;;;;;;;3.97;100.00;101562.78;7394315;19;20031;-57
2023/02/27 04:34:46;;;;;;;0.63;0.63;;;;;;;3.51;100.00;101579.09;7393226;19;20006;-57
2023/02/27 04:37:28;;;;;;;0.47;0.47;;;;;;;3.93;100.00;101573.00;7394126;19;20013;-57
2023/02/27 04:40:26;;;;;;;0.20;0.20;;;;;;;3.44;100.00;101578.28;7394986;19;20015;-57
2023/02/27 04:42:58;;;;;;;2.72;0.75;;;;;;;3.45;100.00;101585.38;7396223;19;20044;-57
2023/02/27 04:45:27;;;;;;;0.38;0.38;;;;;;;4.06;100.00;101585.25;7393672;19;20014;-57
2023/02/27 04:48:07;;;;;;;4.78;0.77;;;;;;;6.86;100.00;101567.59;7394543;19;20774;-57
2023/02/27 04:50:42;;;;;;;0.70;0.43;;;;;;;5.90;100.00;101567.41;7396172;19;20402;-57
2023/02/27 04:53:44;;;;;;;0.13;0.13;;;;;;;4.88;100.00;101566.84;7400005;19;20011;-58
2023/02/27 04:56:16;;;;;;;0.80;0.38;;;;;;;4.36;100.00;101568.38;7395153;19;20017;-58
2023/02/27 04:58:50;;;;;;;1.33;0.88;;;;;;;4.45;100.00;101569.59;7397109;19;20006;-57
2023/02/27 05:01:28;;;;;;;1.08;0.85;;;;;;;3.90;100.00;101562.75;7394210;19;20014;-57
2023/02/27 05:03:56;;;;;;;0.30;0.30;;;;;;;3.85;100.00;101566.66;7394911;19;20034;-57
2023/02/27 05:06:27;;;;;;;14.35;0.65;;;;;;;3.61;100.00;101574.84;7394388;19;20017;-57
2023/02/27 05:09:16;;;;;;;0.55;0.55;;;;;;;3.56;100.00;101569.69;7394529;19;20082;-57
2023/02/27 05:11:49;;;;;;;3.60;1.20;;;;;;;7.98;100.00;101554.47;7392950;19;20006;-57
2023/02/27 05:14:22;;;;;;;2.85;0.60;;;;;;;9.07;100.00;101563.91;7393924;19;20344;-57
2023/02/27 05:16:51;;;;;;;0.60;0.60;;;;;;;9.40;100.00;101564.16;7393962;19;20024;-56
2023/02/27 05:19:18;;;;;;;1.17;1.08;;;;;;;9.55;100.00;101568.22;7395522;19;20438;-57
2023/02/27 05:21:59;;;;;;;0.40;0.40;;;;;;;9.62;100.00;101562.50;7389562;19;20006;-57
2023/02/27 05:25:07;;;;;;;0.30;0.30;;;;;;;6.92;100.00;101557.63;7392402;19;20497;-58
2023/02/27 05:27:38;;;;;;;0.28;0.28;;;;;;;8.75;100.00;101568.47;7390031;19;20014;-58
2023/02/27 05:30:40;;;;;;;0.40;0.40;;;;;;;9.63;100.00;101569.66;7391203;19;20010;-58
2023/02/27 05:33:11;;;;;;;0.43;0.43;;;;;;;9.66;100.00;101560.44;7394944;19;20020;-59
2023/02/27 05:35:48;;;;;;;0.60;0.50;;;;;;;8.31;100.00;101555.66;7391480;19;20011;-59
2023/02/27 05:38:21;;;;;;;3.03;0.77;;;;;;;8.16;100.00;101551.47;7391780;19;20033;-58
2023/02/27 05:40:53;;;;;;;0.45;0.45;;;;;;;5.50;100.00;101565.16;7392693;19;20790;-58
2023/02/27 05:43:31;;;;;;;0.30;0.30;;;;;;;5.11;100.00;101558.94;7394319;19;20010;-58
2023/02/27 05:46:04;;;;;;;0.38;0.38;;;;;;;4.85;100.00;101556.59;7391637;19;20013;-58
2023/02/27 05:48:38;;;;;;;9.90;1.25;;;;;;;4.25;100.00;101557.34;7393023;19;20762;-58
2023/02/27 05:51:07;;;;;;;0.93;0.75;;;;;;;4.17;100.00;101555.75;7391071;19;20014;-58
2023/02/27 05:53:40;;;;;;;0.85;0.85;;;;;;;4.07;100.00;101559.25;7395927;19;20351;-58
2023/02/27 05:56:07;;;;;;;1.33;0.75;;;;;;;9.02;100.00;101556.09;7390626;19;20018;-59
2023/02/27 05:58:42;;;;;;;0.30;0.30;;;;;;;4.67;100.00;101561.31;7390505;19;20058;-58
2023/02/27 06:01:10;;;;;;;0.77;0.77;;;;;;;4.05;100.00;101561.63;7388252;19;20010;-58
2023/02/27 06:03:40;;;;;;;0.20;0.20;;;;;;;3.90;100.00;101567.50;7393021;19;20038;-58
2023/02/27 06:06:18;;;;;;;2.35;0.77;;;;;;;4.05;100.00;101569.13;7388580;19;20643;-58
2023/02/27 06:08:45;;;;;;;0.30;0.30;;;;;;;3.83;100.00;101573.75;7387091;19;20007;-57
2023/02/27 06:11:12;;;;;;;0.80;0.65;;;;;;;3.70;100.00;101575.28;7389145;19;20751;-58
2023/02/27 06:13:38;;;;;;;0.82;0.52;;;;;;;3.61;100.00;101578.41;7391709;19;20011;-58
2023/02/27 06:16:08;;;;;;;1.17;0.70;;;;;;;4.30;100.00;101584.53;7388859;19;20015;-57
2023/02/27 06:18:34;;;;;;;0.30;0.30;;;;;;;4.50;100.00;101580.22;7389132;19;20015;-57
2023/02/27 06:21:00;;;;;;;0.68;0.60;;;;;;;5.32;100.00;101575.47;7386303;19;20070;-57
2023/02/27 06:23:26;;;;;;;0.45;0.45;;;;;;;4.94;100.00;101577.09;7394373;19;20111;-57
2023/02/27 06:25:52;;;;;;;0.20;0.20;;;;;;;4.37;100.00;101576.28;7389755;19;20035;-57
2023/02/27 06:28:19;;;;;;;2.35;0.65;;;;;;;4.14;100.00;101577.78;7389705;19;20010;-57
2023/02/27 06:30:45;;;;;;;1.15;0.75;;;;;;;4.29;100.00;101580.19;7387998;19;20382;-57
2023/02/27 06:33:11;;;;;;;0.88;0.88;;;;;;;6.21;100.00;101573.19;7391030;19;20014;-57
2023/02/27 06:35:38;;;;;;;1.55;1.45;;;;;;;4.07;100.00;101577.78;7386663;19;20027;-57
2023/02/27 06:38:04;;;;;;;0.43;0.30;;;;;;;4.22;100.00;101580.16;7388460;19;20026;-57
2023/02/27 06:40:30;;;;;;;0.30;0.30;;;;;;;4.68;100.00;101582.22;7392097;19;20022;-58
2023/02/27 06:42:56;;;;;;;0.30;0.30;;;;;;;4.50;100.00;101585.75;7392532;19;20014;-58
2023/02/27 06:45:23;;;;;;;1.85;0.70;;;;;;;4.54;100.00;101586.56;7388841;19;20010;-57
2023/02/27 06:47:49;;;;;;;1.15;0.73;;;;;;;4.00;100.00;101589.56;7387959;19;20011;-57
2023/02/27 06:50:15;;;;;;;2.67;0.77;;;;;;;3.70;100.00;101603.59;7388695;19;20017;-58
2023/02/27 06:52:41;;;;;;;0.63;0.30;;;;;;;3.56;100.00;101597.22;7391725;19;20034;-58
2023/02/27 06:55:08;;;;;;;0.82;0.40;;;;;;;3.98;100.00;101602.97;7388048;19;20010;-58
2023/02/27 06:57:35;;;;;;;1.38;0.57;;;;;;;4.47;100.00;101596.78;7388285;19;20010;-57
2023/02/27 07:00:01;;;;;;;4.50;0.85;;;;;;;4.19;100.00;101603.03;7389608;19;20077;-59
2023/02/27 07:02:28;;;;;;;0.52;0.40;;;;;;;4.18;100.00;101598.66;7391323;19;20014;-58
2023/02/27 07:04:54;;;;;;;0.98;0.93;;;;;;;4.21;100.00;101600.66;7389570;19;20858;-57
2023/02/27 07:07:20;;;;;;;0.30;0.30;;;;;;;4.44;100.00;101597.56;7388439;19;20019;-57
2023/02/27 07:09:47;;;;;;;0.28;0.28;;;;;;;4.37;100.00;101603.88;7388504;19;20011;-57
2023/02/27 07:12:14;;;;;;;2.10;0.85;;;;;;;4.16;100.00;101606.53;7390719;19;20342;-57
2023/02/27 07:14:40;;;;;;;0.90;0.60;;;;;;;4.24;100.00;101601.84;7385886;19;20018;-57
2023/02/27 07:17:06;;;;;;;1.15;0.40;;;;;;;4.35;100.00;101606.19;7386793;19;20006;-57
2023/02/27 07:19:34;;;;;;;1.13;0.52;;;;;;;4.20;100.00;101610.09;7392462;19;20515;-57
2023/02/27 07:22:00;;;;;;;0.98;0.95;;;;;;;4.51;100.00;101603.88;7389225;19;20368;-57
2023/02/27 07:24:27;;;;;;;0.32;0.32;;;;;;;4.69;100.00;101619.66;7389025;19;20010;-57
2023/02/27 07:26:53;;;;;;;1.33;0.30;;;;;;;4.75;100.00;101607.06;7389204;19;20031;-57
2023/02/27 07:29:19;;;;;;;0.82;0.80;;;;;;;4.84;100.00;101610.22;7388824;19;20534;-57
2023/02/27 07:31:45;;;;;;;0.55;0.55;;;;;;;5.06;100.00;101617.31;7386505;19;20011;-57
2023/02/27 07:34:13;;;;;;;0.28;0.28;;;;;;;5.03;100.00;101613.38;7388005;19;20015;-57
2023/02/27 07:36:40;;;;;;;0.70;0.70;;;;;;;4.95;100.00;101613.78;7387804;19;20038;-56
2023/02/27 07:39:07;;;;;;;0.43;0.43;;;;;;;4.73;100.00;101620.47;7386766;19;20834;-56
2023/02/27 07:41:33;;;;;;;0.57;0.50;;;;;;;4.76;100.00;101626.00;7390480;19;20046;-56
2023/02/27 07:44:00;;;;;;;0.30;0.30;;;;;;;4.50;100.00;101620.84;7387740;19;20074;-56
2023/02/27 07:46:26;;;;;;;0.52;0.52;;;;;;;5.41;100.00;101624.78;7391228;19;20023;-56
2023/02/27 07:48:53;;;;;;;0.13;0.13;;;;;;;5.62;100.00;101628.28;7397582;19;20015;-56
2023/02/27 07:51:19;;;;;;;2.40;0.90;;;;;;;4.86;100.00;101630.72;7394354;19;20019;-56
2023/02/27 07:53:45;;;;;;;1.35;1.25;;;;;;;5.15;100.00;101631.53;7394207;19;20014;-56
2023/02/27 07:56:12;;;;;;;6.43;0.40;;;;;;;4.52;100.00;101637.78;7395024;19;20047;-56
2023/02/27 07:58:38;;;;;;;0.35;0.35;;;;;;;4.93;100.00;101625.22;7394137;19;20011;-55
2023/02/27 08:01:05;;;;;;;0.50;0.50;;;;;;;4.40;100.00;101641.69;7393385;19;20021;-56
2023/02/27 08:03:31;;;;;;;1.65;0.90;;;;;;;4.67;100.00;101641.34;7397947;19;20007;-56
2023/02/27 08:05:57;;;;;;;0.65;0.60;;;;;;;4.69;100.00;101636.22;7394064;19;20023;-56
2023/02/27 08:08:23;;;;;;;0.32;0.32;;;;;;;4.70;100.00;101637.81;7393237;19;20007;-55
2023/02/27 08:10:49;;;;;;;0.30;0.30;;;;;;;4.78;100.00;101639.41;7392909;19;20034;-56
2023/02/27 08:13:16;;;;;;;0.82;0.82;;;;;;;4.84;100.00;101640.56;7397105;19;20021;-56
2023/02/27 08:15:42;;;;;;;0.50;0.50;;;;;;;4.63;100.00;101639.34;7395669;19;20010;-56
2023/02/27 08:18:09;;;;;;;0.40;0.40;;;;;;;4.98;100.00;101646.13;7397229;19;20006;-56
2023/02/27 08:20:36;;;;;;;0.77;0.38;;;;;;;5.09;100.00;101642.16;7397636;19;20027;-56
2023/02/27 08:23:02;;;;;;;1.05;0.40;;;;;;;4.94;100.00;101648.88;7397241;19;20470;-56
2023/02/27 08:25:29;;;;;;;0.60;0.60;;;;;;;4.72;100.00;101646.50;7398017;19;20011;-56
2023/02/27 08:27:55;;;;;;;0.40;0.40;;;;;;;4.82;100.00;101649.25;7398834;19;20487;-56
2023/02/27 08:30:21;;;;;;;1.45;0.68;;;;;;;4.82;100.00;101656.75;7393969;19;20015;-56
2023/02/27 08:32:47;;;;;;;1.77;0.85;;;;;;;5.81;100.00;101647.19;7396002;19;20070;-56
2023/02/27 08:35:14;;;;;;;0.30;0.30;;;;;;;6.11;100.00;101655.00;7393331;19;20062;-56
2023/02/27 08:37:40;;;;;;;0.35;0.35;;;;;;;6.26;100.00;101650.22;7393992;19;20014;-56
2023/02/27 08:40:07;;;;;;;0.63;0.60;;;;;;;5.40;100.00;101659.91;7394673;19;20018;-56
2023/02/27 08:42:34;;;;;;;0.35;0.35;;;;;;;5.44;100.00;101659.88;7394248;19;20044;-56
2023/02/27 08:45:00;;;;;;;0.40;0.40;;;;;;;5.66;100.00;101656.72;7392935;19;20033;-56
2023/02/27 08:47:26;;;;;;;1.08;0.98;;;;;;;5.80;100.00;101648.41;7392000;19;20089;-56
2023/02/27 08:49:52;;;;;;;0.68;0.25;;;;;;;5.99;100.00;101650.72;7397515;19;20014;-57
2023/02/27 08:52:18;;;;;;;0.40;0.40;;;;;;;5.89;100.00;101654.31;7395636;19;20006;-56
2023/02/27 08:54:44;;;;;;;1.10;0.65;;;;;;;5.84;100.00;101657.50;7394160;19;20018;-56
2023/02/27 08:57:11;;;;;;;0.20;0.20;;;;;;;6.83;100.00;101651.47;7391194;19;20134;-56
2023/02/27 08:59:37;;;;;;;0.15;0.15;;;;;;;6.61;100.00;101648.03;7391976;19;20003;-56
2023/02/27 09:02:03;;;;;;;0.30;0.30;;;;;;;6.68;100.00;101644.44;7390932;19;20020;-56
2023/02/27 09:04:29;;;;;;;0.90;0.60;;;;;;;6.18;100.00;101656.97;7391044;19;20015;-56
2023/02/27 09:06:56;;;;;;;1.15;0.80;;;;;;;6.04;100.00;101658.59;7390759;19;20059;-56
2023/02/27 09:09:23;;;;;;;0.30;0.30;;;;;;;6.03;100.00;101654.28;7390170;19;20010;-56
2023/02/27 09:11:50;;;;;;;0.63;0.38;;;;;;;6.01;100.00;101662.19;7391518;19;19998;-56
2023/02/27 09:14:17;;;;;;;0.40;0.35;;;;;;;11.30;100.00;101655.41;7390225;19;20011;-56
2023/02/27 09:16:44;;;;;;;1.95;1.27;;;;;;;12.22;100.00;101660.53;7391410;19;20006;-56
2023/02/27 09:19:13;;;;;;;0.82;0.30;;;;;;;12.10;100.00;101657.28;7393857;19;20010;-56
2023/02/27 09:21:39;;;;;;;0.50;0.50;;;;;;;7.44;100.00;101664.44;7391720;19;20003;-56
2023/02/27 09:24:06;;;;;;;0.50;0.50;;;;;;;6.69;100.00;101662.66;7392529;19;20028;-56
2023/02/27 09:26:32;;;;;;;2.63;0.82;;;;;;;6.17;100.00;101666.47;7391833;19;20042;-56
2023/02/27 09:28:58;;;;;;;0.40;0.40;;;;;;;6.02;100.00;101672.03;7390638;19;20019;-56
2023/02/27 09:31:24;;;;;;;0.20;0.20;;;;;;;6.01;100.00;101673.25;7391035;19;20030;-56
2023/02/27 09:33:51;;;;;;;0.88;0.80;;;;;;;6.03;100.00;101670.88;7392670;19;20021;-56
2023/02/27 09:36:17;;;;;;;0.57;0.52;;;;;;;5.99;100.00;101672.84;7390197;19;20751;-56
2023/02/27 09:38:43;;;;;;;0.55;0.55;;;;;;;6.10;100.00;101670.84;7392958;19;20538;-56
2023/02/27 09:41:47;;;;;;;4.03;0.80;;;;;;;6.21;100.00;101683.84;7395280;19;20378;-56
2023/02/27 09:44:24;;;;;;;0.50;0.50;;;;;;;6.11;100.00;101674.38;7389341;19;20880;-56
2023/02/27 09:46:51;;;;;;;0.30;0.22;;;;;;;6.13;100.00;101670.03;7391564;19;20011;-56
2023/02/27 09:49:22;;;;;;;0.20;0.20;;;;;;;7.05;100.00;101674.25;7395470;19;20014;-56
2023/02/27 09:51:51;;;;;;;0.15;0.15;;;;;;;6.52;100.00;101680.91;7392679;19;20359;-56
2023/02/27 09:54:18;;;;;;;0.75;0.65;;;;;;;7.07;100.00;101678.19;7394753;19;20025;-56
2023/02/27 09:56:51;;;;;;;0.15;0.10;;;;;;;6.72;100.00;101678.44;7390337;19;20015;-56
2023/02/27 09:59:18;;;;;;;0.40;0.40;;;;;;;6.89;100.00;101694.13;7393238;19;20467;-56
2023/02/27 10:01:53;;;;;;;0.68;0.68;;;;;;;7.50;100.00;101695.25;7390083;19;20010;-55
2023/02/27 10:04:49;;;;;;;0.30;0.30;;;;;;;7.64;100.00;101695.13;7392599;19;20014;-56
2023/02/27 10:07:18;;;;;;;0.20;0.20;;;;;;;7.47;100.00;101701.63;7391886;19;20011;-56
2023/02/27 10:10:19;;;;;;;0.20;0.20;;;;;;;7.95;100.00;101701.56;7393175;19;20094;-56
2023/02/27 10:12:45;;;;;;;;;;;;;;;7.99;100.00;101705.09;7392024;19;20451;-55
2023/02/27 10:15:22;;;;;;;0.30;0.30;;;;;;;8.20;100.00;101704.84;7393070;19;19914;-56
2023/02/27 10:18:15;;;;;;;0.30;0.30;;;;;;;8.10;100.00;101706.53;7389954;19;20019;-56
2023/02/27 10:21:01;;;;;;;0.20;0.20;;;;;;;8.09;100.00;101707.75;7392745;19;20010;-56
2023/02/27 10:23:40;;;;;;;0.20;0.20;;;;;;;8.22;100.00;101707.97;7390767;19;20006;-56
2023/02/27 10:26:19;;;;;;;0.30;0.30;;;;;;;8.32;100.00;101712.63;7389455;19;20562;-56
2023/02/27 10:28:46;;;;;;;0.60;0.60;;;;;;;8.17;100.00;101708.44;7389665;19;20018;-56
2023/02/27 10:31:24;;;;;;;0.47;0.47;;;;;;;7.39;100.00;101719.50;7390531;19;20329;-56
2023/02/27 10:33:51;;;;;;;2.85;0.95;;;;;;;7.48;100.00;101709.53;7390003;19;20031;-56
2023/02/27 10:36:18;;;;;;;0.30;0.20;;;;;;;7.96;100.00;101722.53;7388379;19;20474;-56
2023/02/27 10:38:48;;;;;;;0.20;0.20;;;;;;;7.58;100.00;101711.41;7389230;19;20010;-56
2023/02/27 10:41:17;;;;;;;0.50;0.32;;;;;;;7.50;100.00;101712.69;7391600;19;20235;-56
2023/02/27 10:43:44;;;;;;;0.50;0.50;;;;;;;7.39;100.00;101716.72;7393485;19;20015;-56
2023/02/27 10:46:21;;;;;;;0.10;0.10;;;;;;;8.49;100.00;101717.19;7389251;19;20021;-56
2023/02/27 10:48:47;;;;;;;0.20;0.20;;;;;;;8.03;100.00;101716.94;7391282;19;20007;-56
2023/02/27 10:51:26;;;;;;;0.70;0.70;;;;;;;8.72;100.00;101714.53;7388890;19;20003;-56
2023/02/27 10:54:13;;;;;;;0.43;0.43;;;;;;;10.00;100.00;101716.00;7388982;19;20048;-56
2023/02/27 10:56:43;;;;;;;1.33;0.60;;;;;;;9.92;100.00;101723.69;7388165;19;20466;-56
2023/02/27 10:59:19;;;;;;;0.10;0.10;;;;;;;8.25;100.00;101718.28;7386776;19;20015;-56
2023/02/27 11:01:52;;;;;;;0.57;0.57;;;;;;;7.92;100.00;101717.03;7386827;19;20444;-56
2023/02/27 11:04:35;;;;;;;1.55;0.35;;;;;;;7.80;100.00;101709.22;7388470;19;20014;-56
2023/02/27 11:07:05;;;;;;;1.02;0.40;;;;;;;8.11;100.00;101712.88;7386858;19;20027;-56
2023/02/27 11:09:32;;;;;;;0.10;0.10;;;;;;;8.59;100.00;101716.28;7388826;19;20746;-56
2023/02/27 11:12:24;;;;;;;0.38;0.38;;;;;;;8.63;100.00;101711.47;7389741;19;20066;-56
2023/02/27 11:14:56;;;;;;;0.40;0.30;;;;;;;9.01;100.00;101704.56;7388388;19;20007;-56
2023/02/27 11:17:35;;;;;;;0.38;0.38;;;;;;;9.35;100.00;101714.78;7385674;19;20010;-56
2023/02/27 11:20:06;;;;;;;0.30;0.25;;;;;;;9.26;100.00;101703.38;7393177;19;20466;-56
2023/02/27 11:22:32;;;;;;;0.20;0.20;;;;;;;9.03;100.00;101702.13;7397035;19;20359;-57
2023/02/27 11:25:34;;;;;;;0.63;0.40;;;;;;;8.95;100.00;101699.88;7394120;19;20010;-56
2023/02/27 11:28:21;;;;;;;0.35;0.35;;;;;;;9.52;100.00;101699.78;7391350;19;20011;-56
2023/02/27 11:31:15;;;;;;;4.47;0.68;;;;;;;9.74;100.00;101687.88;7395587;19;20014;-56
2023/02/27 11:33:51;;;;;;;0.20;0.20;;;;;;;9.85;100.00;101701.56;7399128;19;20021;-56
2023/02/27 11:36:18;;;;;;;0.40;0.40;;;;;;;9.76;100.00;101701.34;7395560;19;20510;-56
2023/02/27 11:38:55;;;;;;;0.20;0.20;;;;;;;10.86;100.00;101699.91;7395320;19;20335;-56
2023/02/27 11:41:33;;;;;;;0.68;0.52;;;;;;;9.95;100.00;101695.03;7397367;19;20011;-56
2023/02/27 11:44:02;;;;;;;1.55;0.57;;;;;;;10.02;100.00;101689.31;7394746;19;20014;-56
2023/02/27 11:46:28;;;;;;;3.03;0.40;;;;;;;10.75;100.00;101696.56;7394663;19;20020;-56